sensor_id;sensor_type;location;lat;lon;timestamp;P1;durP1;ratioP1;P2;durP2;ratioP2
29916;SDS011;16786;49.466;11.068;2023-06-10T00:00:00;15.20;;;10.70;;
29916;SDS011;16786;49.466;11.068;2023-06-10T00:02:38;13.68;;;10.48;;
29916;SDS011;16786;49.466;11.068;2023-06-10T00:05:07;15.10;;;10.10;;
29916;SDS011;16786;49.466;11.068;2023-06-10T00:07:35;11.38;;;10.18;;
29916;SDS011;16786;49.466;11.068;2023-06-10T00:10:08;11.43;;;10.02;;
29916;SDS011;16786;49.466;11.068;2023-06-10T00:12:37;12.10;;;10.25;;
29916;SDS011;16786;49.466;11.068;2023-06-10T00:15:06;11.93;;;10.27;;
29916;SDS011;16786;49.466;11.068;2023-06-10T00:17:35;12.15;;;9.68;;
29916;SDS011;16786;49.466;11.068;2023-06-10T00:20:08;11.30;;;9.75;;
29916;SDS011;16786;49.466;11.068;2023-06-10T00:22:39;11.30;;;9.52;;
29916;SDS011;16786;49.466;11.068;2023-06-10T00:25:09;10.48;;;9.38;;
29916;SDS011;16786;49.466;11.068;2023-06-10T00:27:38;11.52;;;9.55;;
29916;SDS011;16786;49.466;11.068;2023-06-10T00:30:05;11.13;;;9.13;;
29916;SDS011;16786;49.466;11.068;2023-06-10T00:32:35;11.27;;;9.27;;
29916;SDS011;16786;49.466;11.068;2023-06-10T00:35:04;13.02;;;9.82;;
29916;SDS011;16786;49.466;11.068;2023-06-10T00:37:33;13.20;;;9.35;;
29916;SDS011;16786;49.466;11.068;2023-06-10T00:40:04;12.40;;;9.38;;
29916;SDS011;16786;49.466;11.068;2023-06-10T00:42:32;10.85;;;9.25;;
29916;SDS011;16786;49.466;11.068;2023-06-10T00:45:01;10.60;;;9.25;;
29916;SDS011;16786;49.466;11.068;2023-06-10T00:47:29;9.90;;;8.90;;
29916;SDS011;16786;49.466;11.068;2023-06-10T00:49:58;10.73;;;8.98;;
29916;SDS011;16786;49.466;11.068;2023-06-10T00:52:27;11.27;;;9.82;;
29916;SDS011;16786;49.466;11.068;2023-06-10T00:54:56;11.77;;;9.40;;
29916;SDS011;16786;49.466;11.068;2023-06-10T00:57:23;10.88;;;9.70;;
29916;SDS011;16786;49.466;11.068;2023-06-10T00:59:54;11.38;;;9.00;;
29916;SDS011;16786;49.466;11.068;2023-06-10T01:02:21;11.32;;;9.32;;
29916;SDS011;16786;49.466;11.068;2023-06-10T01:04:49;10.23;;;9.10;;
29916;SDS011;16786;49.466;11.068;2023-06-10T01:07:25;11.02;;;9.18;;
29916;SDS011;16786;49.466;11.068;2023-06-10T01:10:04;10.15;;;9.10;;
29916;SDS011;16786;49.466;11.068;2023-06-10T01:13:00;13.60;;;9.77;;
29916;SDS011;16786;49.466;11.068;2023-06-10T01:15:34;11.38;;;10.18;;
29916;SDS011;16786;49.466;11.068;2023-06-10T01:18:03;11.98;;;10.05;;
29916;SDS011;16786;49.466;11.068;2023-06-10T01:20:34;11.30;;;9.88;;
29916;SDS011;16786;49.466;11.068;2023-06-10T01:23:07;14.98;;;9.73;;
29916;SDS011;16786;49.466;11.068;2023-06-10T01:25:41;12.40;;;9.88;;
29916;SDS011;16786;49.466;11.068;2023-06-10T01:28:18;14.30;;;10.07;;
29916;SDS011;16786;49.466;11.068;2023-06-10T01:33:53;12.07;;;10.50;;
29916;SDS011;16786;49.466;11.068;2023-06-10T01:36:22;14.25;;;10.55;;
29916;SDS011;16786;49.466;11.068;2023-06-10T01:38:51;13.98;;;10.18;;
29916;SDS011;16786;49.466;11.068;2023-06-10T01:41:20;12.45;;;10.57;;
29916;SDS011;16786;49.466;11.068;2023-06-10T01:43:48;15.95;;;11.45;;
29916;SDS011;16786;49.466;11.068;2023-06-10T01:46:16;12.35;;;10.02;;
29916;SDS011;16786;49.466;11.068;2023-06-10T01:48:47;13.45;;;10.25;;
29916;SDS011;16786;49.466;11.068;2023-06-10T01:51:16;12.75;;;10.45;;
29916;SDS011;16786;49.466;11.068;2023-06-10T01:53:46;17.70;;;11.18;;
29916;SDS011;16786;49.466;11.068;2023-06-10T01:56:13;14.10;;;10.32;;
29916;SDS011;16786;49.466;11.068;2023-06-10T01:58:48;15.30;;;10.80;;
29916;SDS011;16786;49.466;11.068;2023-06-10T02:01:15;15.90;;;10.40;;
29916;SDS011;16786;49.466;11.068;2023-06-10T02:03:45;10.93;;;9.68;;
29916;SDS011;16786;49.466;11.068;2023-06-10T02:06:13;13.68;;;11.23;;
29916;SDS011;16786;49.466;11.068;2023-06-10T02:08:40;15.00;;;10.50;;
29916;SDS011;16786;49.466;11.068;2023-06-10T02:11:08;19.15;;;11.07;;
29916;SDS011;16786;49.466;11.068;2023-06-10T02:13:36;11.68;;;10.48;;
29916;SDS011;16786;49.466;11.068;2023-06-10T02:16:04;13.75;;;10.27;;
29916;SDS011;16786;49.466;11.068;2023-06-10T02:18:32;14.93;;;10.05;;
29916;SDS011;16786;49.466;11.068;2023-06-10T02:21:00;14.43;;;10.23;;
29916;SDS011;16786;49.466;11.068;2023-06-10T02:23:28;13.52;;;10.27;;
29916;SDS011;16786;49.466;11.068;2023-06-10T02:25:55;17.33;;;11.77;;
29916;SDS011;16786;49.466;11.068;2023-06-10T02:28:24;13.38;;;10.63;;
29916;SDS011;16786;49.466;11.068;2023-06-10T02:30:51;13.55;;;9.88;;
29916;SDS011;16786;49.466;11.068;2023-06-10T02:33:20;12.45;;;10.05;;
29916;SDS011;16786;49.466;11.068;2023-06-10T02:35:48;14.63;;;10.68;;
29916;SDS011;16786;49.466;11.068;2023-06-10T02:38:16;14.65;;;10.02;;
29916;SDS011;16786;49.466;11.068;2023-06-10T02:40:43;12.60;;;10.25;;
29916;SDS011;16786;49.466;11.068;2023-06-10T02:43:12;13.32;;;8.98;;
29916;SDS011;16786;49.466;11.068;2023-06-10T02:45:41;13.80;;;9.45;;
29916;SDS011;16786;49.466;11.068;2023-06-10T02:48:09;13.43;;;9.60;;
29916;SDS011;16786;49.466;11.068;2023-06-10T02:50:37;13.82;;;10.05;;
29916;SDS011;16786;49.466;11.068;2023-06-10T02:53:16;14.10;;;9.77;;
29916;SDS011;16786;49.466;11.068;2023-06-10T02:55:48;12.40;;;9.85;;
29916;SDS011;16786;49.466;11.068;2023-06-10T02:58:18;13.02;;;10.45;;
29916;SDS011;16786;49.466;11.068;2023-06-10T03:00:45;11.38;;;9.35;;
29916;SDS011;16786;49.466;11.068;2023-06-10T03:03:14;11.93;;;9.77;;
29916;SDS011;16786;49.466;11.068;2023-06-10T03:05:50;15.82;;;9.80;;
29916;SDS011;16786;49.466;11.068;2023-06-10T03:08:20;14.02;;;10.25;;
29916;SDS011;16786;49.466;11.068;2023-06-10T03:10:48;11.77;;;9.50;;
29916;SDS011;16786;49.466;11.068;2023-06-10T03:13:17;11.38;;;9.23;;
29916;SDS011;16786;49.466;11.068;2023-06-10T03:15:45;11.95;;;9.88;;
29916;SDS011;16786;49.466;11.068;2023-06-10T03:18:16;12.63;;;10.05;;
29916;SDS011;16786;49.466;11.068;2023-06-10T03:20:45;12.75;;;9.52;;
29916;SDS011;16786;49.466;11.068;2023-06-10T03:23:13;13.13;;;10.32;;
29916;SDS011;16786;49.466;11.068;2023-06-10T03:25:42;12.35;;;9.85;;
29916;SDS011;16786;49.466;11.068;2023-06-10T03:28:13;14.10;;;9.60;;
29916;SDS011;16786;49.466;11.068;2023-06-10T03:30:42;12.05;;;9.73;;
29916;SDS011;16786;49.466;11.068;2023-06-10T03:33:10;13.50;;;9.88;;
29916;SDS011;16786;49.466;11.068;2023-06-10T03:35:38;11.13;;;9.25;;
29916;SDS011;16786;49.466;11.068;2023-06-10T03:38:06;11.45;;;9.77;;
29916;SDS011;16786;49.466;11.068;2023-06-10T03:40:34;13.20;;;9.93;;
29916;SDS011;16786;49.466;11.068;2023-06-10T03:43:02;10.88;;;9.15;;
29916;SDS011;16786;49.466;11.068;2023-06-10T03:45:30;11.73;;;9.20;;
29916;SDS011;16786;49.466;11.068;2023-06-10T03:47:59;13.38;;;9.10;;
29916;SDS011;16786;49.466;11.068;2023-06-10T03:50:36;12.02;;;9.25;;
29916;SDS011;16786;49.466;11.068;2023-06-10T03:53:04;12.00;;;9.25;;
29916;SDS011;16786;49.466;11.068;2023-06-10T03:55:32;11.10;;;9.07;;
29916;SDS011;16786;49.466;11.068;2023-06-10T03:58:00;10.25;;;8.85;;
29916;SDS011;16786;49.466;11.068;2023-06-10T04:00:28;11.85;;;10.25;;
29916;SDS011;16786;49.466;11.068;2023-06-10T04:02:56;11.00;;;9.52;;
29916;SDS011;16786;49.466;11.068;2023-06-10T04:05:33;11.43;;;10.18;;
29916;SDS011;16786;49.466;11.068;2023-06-10T04:08:02;12.35;;;10.55;;
29916;SDS011;16786;49.466;11.068;2023-06-10T04:10:31;12.52;;;11.20;;
29916;SDS011;16786;49.466;11.068;2023-06-10T04:12:59;12.13;;;9.95;;
29916;SDS011;16786;49.466;11.068;2023-06-10T04:15:32;12.10;;;10.20;;
29916;SDS011;16786;49.466;11.068;2023-06-10T04:18:06;12.15;;;10.02;;
29916;SDS011;16786;49.466;11.068;2023-06-10T04:20:34;14.20;;;10.15;;
29916;SDS011;16786;49.466;11.068;2023-06-10T04:23:01;12.35;;;9.63;;
29916;SDS011;16786;49.466;11.068;2023-06-10T04:25:31;11.77;;;9.70;;
29916;SDS011;16786;49.466;11.068;2023-06-10T04:27:59;15.05;;;11.60;;
29916;SDS011;16786;49.466;11.068;2023-06-10T04:30:26;13.70;;;10.50;;
29916;SDS011;16786;49.466;11.068;2023-06-10T04:32:55;13.07;;;11.15;;
29916;SDS011;16786;49.466;11.068;2023-06-10T04:35:23;13.82;;;11.15;;
29916;SDS011;16786;49.466;11.068;2023-06-10T04:37:55;14.15;;;12.02;;
29916;SDS011;16786;49.466;11.068;2023-06-10T04:40:23;15.82;;;12.35;;
29916;SDS011;16786;49.466;11.068;2023-06-10T04:42:53;16.60;;;11.38;;
29916;SDS011;16786;49.466;11.068;2023-06-10T04:45:21;13.85;;;10.93;;
29916;SDS011;16786;49.466;11.068;2023-06-10T04:47:49;11.80;;;9.98;;
29916;SDS011;16786;49.466;11.068;2023-06-10T04:50:17;11.13;;;9.73;;
29916;SDS011;16786;49.466;11.068;2023-06-10T04:52:44;13.93;;;10.73;;
29916;SDS011;16786;49.466;11.068;2023-06-10T04:55:12;13.30;;;9.68;;
29916;SDS011;16786;49.466;11.068;2023-06-10T04:57:40;13.05;;;11.07;;
29916;SDS011;16786;49.466;11.068;2023-06-10T05:00:08;13.27;;;9.90;;
29916;SDS011;16786;49.466;11.068;2023-06-10T05:02:37;13.98;;;10.75;;
29916;SDS011;16786;49.466;11.068;2023-06-10T05:05:05;13.80;;;11.50;;
29916;SDS011;16786;49.466;11.068;2023-06-10T05:07:33;18.23;;;12.95;;
29916;SDS011;16786;49.466;11.068;2023-06-10T05:10:01;18.75;;;13.60;;
29916;SDS011;16786;49.466;11.068;2023-06-10T05:12:32;15.45;;;12.15;;
29916;SDS011;16786;49.466;11.068;2023-06-10T05:15:00;15.63;;;12.35;;
29916;SDS011;16786;49.466;11.068;2023-06-10T05:17:27;13.95;;;11.13;;
29916;SDS011;16786;49.466;11.068;2023-06-10T05:19:57;13.68;;;10.85;;
29916;SDS011;16786;49.466;11.068;2023-06-10T05:22:25;14.10;;;11.57;;
29916;SDS011;16786;49.466;11.068;2023-06-10T05:24:54;16.30;;;11.55;;
29916;SDS011;16786;49.466;11.068;2023-06-10T05:27:22;13.95;;;11.38;;
29916;SDS011;16786;49.466;11.068;2023-06-10T05:29:49;12.38;;;11.05;;
29916;SDS011;16786;49.466;11.068;2023-06-10T05:32:18;11.50;;;10.02;;
29916;SDS011;16786;49.466;11.068;2023-06-10T05:34:46;13.98;;;12.10;;
29916;SDS011;16786;49.466;11.068;2023-06-10T05:37:13;14.73;;;11.73;;
29916;SDS011;16786;49.466;11.068;2023-06-10T05:39:41;20.58;;;15.52;;
29916;SDS011;16786;49.466;11.068;2023-06-10T05:42:08;17.15;;;11.85;;
29916;SDS011;16786;49.466;11.068;2023-06-10T05:44:37;13.68;;;12.13;;
29916;SDS011;16786;49.466;11.068;2023-06-10T05:47:04;14.80;;;12.32;;
29916;SDS011;16786;49.466;11.068;2023-06-10T05:49:32;14.07;;;10.40;;
29916;SDS011;16786;49.466;11.068;2023-06-10T05:52:00;16.30;;;11.30;;
29916;SDS011;16786;49.466;11.068;2023-06-10T05:54:27;13.57;;;11.35;;
29916;SDS011;16786;49.466;11.068;2023-06-10T05:56:56;12.85;;;10.43;;
29916;SDS011;16786;49.466;11.068;2023-06-10T05:59:23;12.43;;;10.43;;
29916;SDS011;16786;49.466;11.068;2023-06-10T06:01:51;12.15;;;10.68;;
29916;SDS011;16786;49.466;11.068;2023-06-10T06:04:18;11.40;;;10.20;;
29916;SDS011;16786;49.466;11.068;2023-06-10T06:06:46;15.13;;;11.13;;
29916;SDS011;16786;49.466;11.068;2023-06-10T06:09:14;13.45;;;11.02;;
29916;SDS011;16786;49.466;11.068;2023-06-10T06:11:41;18.52;;;11.05;;
29916;SDS011;16786;49.466;11.068;2023-06-10T06:14:10;12.88;;;11.05;;
29916;SDS011;16786;49.466;11.068;2023-06-10T06:16:38;12.75;;;10.38;;
29916;SDS011;16786;49.466;11.068;2023-06-10T06:19:05;11.93;;;10.57;;
29916;SDS011;16786;49.466;11.068;2023-06-10T06:21:33;11.15;;;9.98;;
29916;SDS011;16786;49.466;11.068;2023-06-10T06:24:01;11.68;;;10.38;;
29916;SDS011;16786;49.466;11.068;2023-06-10T06:26:28;11.63;;;9.95;;
29916;SDS011;16786;49.466;11.068;2023-06-10T06:28:56;12.73;;;9.77;;
29916;SDS011;16786;49.466;11.068;2023-06-10T06:31:24;13.35;;;10.88;;
29916;SDS011;16786;49.466;11.068;2023-06-10T06:33:52;13.80;;;11.02;;
29916;SDS011;16786;49.466;11.068;2023-06-10T06:36:19;15.75;;;12.20;;
29916;SDS011;16786;49.466;11.068;2023-06-10T06:38:47;12.93;;;11.43;;
29916;SDS011;16786;49.466;11.068;2023-06-10T06:41:15;13.05;;;10.68;;
29916;SDS011;16786;49.466;11.068;2023-06-10T06:43:42;12.32;;;10.88;;
29916;SDS011;16786;49.466;11.068;2023-06-10T06:46:29;11.68;;;10.38;;
29916;SDS011;16786;49.466;11.068;2023-06-10T06:48:58;12.23;;;10.98;;
29916;SDS011;16786;49.466;11.068;2023-06-10T06:51:26;14.65;;;11.35;;
29916;SDS011;16786;49.466;11.068;2023-06-10T06:53:55;12.30;;;10.50;;
29916;SDS011;16786;49.466;11.068;2023-06-10T06:56:25;14.65;;;11.38;;
29916;SDS011;16786;49.466;11.068;2023-06-10T06:58:55;16.23;;;11.80;;
29916;SDS011;16786;49.466;11.068;2023-06-10T07:01:24;12.07;;;10.35;;
29916;SDS011;16786;49.466;11.068;2023-06-10T07:03:51;12.10;;;9.55;;
29916;SDS011;16786;49.466;11.068;2023-06-10T07:06:19;10.98;;;9.80;;
29916;SDS011;16786;49.466;11.068;2023-06-10T07:08:46;10.63;;;9.32;;
29916;SDS011;16786;49.466;11.068;2023-06-10T07:11:15;9.82;;;8.50;;
29916;SDS011;16786;49.466;11.068;2023-06-10T07:13:44;10.75;;;8.60;;
29916;SDS011;16786;49.466;11.068;2023-06-10T07:16:12;9.55;;;8.43;;
29916;SDS011;16786;49.466;11.068;2023-06-10T07:18:39;8.57;;;7.75;;
29916;SDS011;16786;49.466;11.068;2023-06-10T07:21:09;10.05;;;8.05;;
29916;SDS011;16786;49.466;11.068;2023-06-10T07:23:37;10.80;;;8.70;;
29916;SDS011;16786;49.466;11.068;2023-06-10T07:26:08;9.68;;;8.75;;
29916;SDS011;16786;49.466;11.068;2023-06-10T07:28:37;8.77;;;7.75;;
29916;SDS011;16786;49.466;11.068;2023-06-10T07:31:05;9.45;;;8.55;;
29916;SDS011;16786;49.466;11.068;2023-06-10T07:33:32;8.93;;;7.90;;
29916;SDS011;16786;49.466;11.068;2023-06-10T07:36:00;10.10;;;8.18;;
29916;SDS011;16786;49.466;11.068;2023-06-10T07:38:27;9.43;;;8.43;;
29916;SDS011;16786;49.466;11.068;2023-06-10T07:40:55;8.63;;;7.82;;
29916;SDS011;16786;49.466;11.068;2023-06-10T07:43:22;9.48;;;8.32;;
29916;SDS011;16786;49.466;11.068;2023-06-10T07:45:51;8.80;;;8.00;;
29916;SDS011;16786;49.466;11.068;2023-06-10T07:48:18;9.35;;;8.35;;
29916;SDS011;16786;49.466;11.068;2023-06-10T07:50:46;10.48;;;8.43;;
29916;SDS011;16786;49.466;11.068;2023-06-10T07:53:13;9.02;;;8.13;;
29916;SDS011;16786;49.466;11.068;2023-06-10T07:55:40;9.40;;;8.45;;
29916;SDS011;16786;49.466;11.068;2023-06-10T07:58:08;9.43;;;8.07;;
29916;SDS011;16786;49.466;11.068;2023-06-10T08:00:35;8.18;;;7.38;;
29916;SDS011;16786;49.466;11.068;2023-06-10T08:03:03;8.95;;;8.05;;
29916;SDS011;16786;49.466;11.068;2023-06-10T08:05:30;11.18;;;8.10;;
29916;SDS011;16786;49.466;11.068;2023-06-10T08:07:58;8.95;;;8.13;;
29916;SDS011;16786;49.466;11.068;2023-06-10T08:10:29;10.02;;;8.43;;
29916;SDS011;16786;49.466;11.068;2023-06-10T08:12:57;8.60;;;7.80;;
29916;SDS011;16786;49.466;11.068;2023-06-10T08:15:25;9.20;;;7.88;;
29916;SDS011;16786;49.466;11.068;2023-06-10T08:17:52;8.38;;;7.47;;
29916;SDS011;16786;49.466;11.068;2023-06-10T08:20:20;9.05;;;7.50;;
29916;SDS011;16786;49.466;11.068;2023-06-10T08:22:47;8.77;;;7.97;;
29916;SDS011;16786;49.466;11.068;2023-06-10T08:25:15;8.65;;;7.85;;
29916;SDS011;16786;49.466;11.068;2023-06-10T08:27:43;8.60;;;7.80;;
29916;SDS011;16786;49.466;11.068;2023-06-10T08:30:11;9.00;;;8.10;;
29916;SDS011;16786;49.466;11.068;2023-06-10T08:32:40;8.55;;;7.65;;
29916;SDS011;16786;49.466;11.068;2023-06-10T08:35:07;8.35;;;7.55;;
29916;SDS011;16786;49.466;11.068;2023-06-10T08:37:35;8.82;;;7.80;;
29916;SDS011;16786;49.466;11.068;2023-06-10T08:40:03;10.63;;;7.93;;
29916;SDS011;16786;49.466;11.068;2023-06-10T08:45:35;9.07;;;8.23;;
29916;SDS011;16786;49.466;11.068;2023-06-10T08:48:04;10.07;;;7.50;;
29916;SDS011;16786;49.466;11.068;2023-06-10T08:50:38;8.15;;;7.35;;
29916;SDS011;16786;49.466;11.068;2023-06-10T08:53:06;8.75;;;6.75;;
29916;SDS011;16786;49.466;11.068;2023-06-10T08:55:37;7.22;;;6.53;;
29916;SDS011;16786;49.466;11.068;2023-06-10T08:58:08;8.00;;;7.20;;
29916;SDS011;16786;49.466;11.068;2023-06-10T09:00:36;7.70;;;7.00;;
29916;SDS011;16786;49.466;11.068;2023-06-10T09:03:05;6.85;;;6.13;;
29916;SDS011;16786;49.466;11.068;2023-06-10T09:05:36;6.90;;;6.30;;
29916;SDS011;16786;49.466;11.068;2023-06-10T09:08:08;7.55;;;6.53;;
29916;SDS011;16786;49.466;11.068;2023-06-10T09:10:36;8.68;;;6.38;;
29916;SDS011;16786;49.466;11.068;2023-06-10T09:13:04;7.20;;;6.47;;
29916;SDS011;16786;49.466;11.068;2023-06-10T09:15:32;7.13;;;6.45;;
29916;SDS011;16786;49.466;11.068;2023-06-10T09:18:00;6.65;;;5.85;;
29916;SDS011;16786;49.466;11.068;2023-06-10T09:20:29;7.50;;;6.78;;
29916;SDS011;16786;49.466;11.068;2023-06-10T09:22:57;7.88;;;6.65;;
29916;SDS011;16786;49.466;11.068;2023-06-10T09:25:36;8.30;;;6.57;;
29916;SDS011;16786;49.466;11.068;2023-06-10T09:28:05;7.55;;;6.85;;
29916;SDS011;16786;49.466;11.068;2023-06-10T09:30:40;7.28;;;6.57;;
29916;SDS011;16786;49.466;11.068;2023-06-10T09:33:12;7.63;;;6.72;;
29916;SDS011;16786;49.466;11.068;2023-06-10T09:35:46;7.47;;;6.78;;
29916;SDS011;16786;49.466;11.068;2023-06-10T09:38:19;11.77;;;10.52;;
29916;SDS011;16786;49.466;11.068;2023-06-10T09:40:48;7.38;;;6.68;;
29916;SDS011;16786;49.466;11.068;2023-06-10T09:43:20;7.55;;;6.68;;
29916;SDS011;16786;49.466;11.068;2023-06-10T09:45:49;7.88;;;7.18;;
29916;SDS011;16786;49.466;11.068;2023-06-10T09:48:20;8.07;;;7.38;;
29916;SDS011;16786;49.466;11.068;2023-06-10T09:50:49;7.60;;;6.90;;
29916;SDS011;16786;49.466;11.068;2023-06-10T09:53:16;8.02;;;7.22;;
29916;SDS011;16786;49.466;11.068;2023-06-10T09:55:45;7.60;;;6.90;;
29916;SDS011;16786;49.466;11.068;2023-06-10T09:58:13;7.38;;;6.68;;
29916;SDS011;16786;49.466;11.068;2023-06-10T10:00:41;8.23;;;7.53;;
29916;SDS011;16786;49.466;11.068;2023-06-10T10:03:08;7.78;;;6.88;;
29916;SDS011;16786;49.466;11.068;2023-06-10T10:05:37;8.07;;;7.38;;
29916;SDS011;16786;49.466;11.068;2023-06-10T10:08:05;7.82;;;7.13;;
29916;SDS011;16786;49.466;11.068;2023-06-10T10:10:33;7.35;;;6.65;;
29916;SDS011;16786;49.466;11.068;2023-06-10T10:13:01;7.72;;;6.47;;
29916;SDS011;16786;49.466;11.068;2023-06-10T10:15:31;8.00;;;7.20;;
29916;SDS011;16786;49.466;11.068;2023-06-10T10:18:06;7.70;;;7.03;;
29916;SDS011;16786;49.466;11.068;2023-06-10T10:20:43;7.97;;;7.18;;
29916;SDS011;16786;49.466;11.068;2023-06-10T10:23:18;8.35;;;7.65;;
29916;SDS011;16786;49.466;11.068;2023-06-10T10:25:54;7.80;;;7.10;;
29916;SDS011;16786;49.466;11.068;2023-06-10T10:28:23;8.20;;;7.47;;
29916;SDS011;16786;49.466;11.068;2023-06-10T10:30:54;7.68;;;6.97;;
29916;SDS011;16786;49.466;11.068;2023-06-10T10:33:36;7.40;;;6.80;;
29916;SDS011;16786;49.466;11.068;2023-06-10T10:36:08;7.03;;;6.32;;
29916;SDS011;16786;49.466;11.068;2023-06-10T10:38:36;6.75;;;6.15;;
29916;SDS011;16786;49.466;11.068;2023-06-10T10:41:03;7.35;;;6.65;;
29916;SDS011;16786;49.466;11.068;2023-06-10T10:43:31;6.95;;;6.25;;
29916;SDS011;16786;49.466;11.068;2023-06-10T10:46:00;7.50;;;6.80;;
29916;SDS011;16786;49.466;11.068;2023-06-10T10:48:33;7.75;;;6.25;;
29916;SDS011;16786;49.466;11.068;2023-06-10T10:51:04;8.13;;;7.38;;
29916;SDS011;16786;49.466;11.068;2023-06-10T10:53:32;8.82;;;6.40;;
29916;SDS011;16786;49.466;11.068;2023-06-10T10:56:07;8.30;;;7.47;;
29916;SDS011;16786;49.466;11.068;2023-06-10T10:59:03;9.65;;;7.30;;
29916;SDS011;16786;49.466;11.068;2023-06-10T11:01:41;7.65;;;6.95;;
29916;SDS011;16786;49.466;11.068;2023-06-10T11:04:12;7.97;;;7.18;;
29916;SDS011;16786;49.466;11.068;2023-06-10T11:06:40;7.18;;;6.57;;
29916;SDS011;16786;49.466;11.068;2023-06-10T11:09:26;7.45;;;6.75;;
29916;SDS011;16786;49.466;11.068;2023-06-10T11:11:58;7.60;;;6.90;;
29916;SDS011;16786;49.466;11.068;2023-06-10T11:14:27;7.93;;;7.22;;
29916;SDS011;16786;49.466;11.068;2023-06-10T11:16:56;7.65;;;6.95;;
29916;SDS011;16786;49.466;11.068;2023-06-10T11:19:34;7.40;;;6.80;;
29916;SDS011;16786;49.466;11.068;2023-06-10T11:22:05;8.90;;;7.97;;
29916;SDS011;16786;49.466;11.068;2023-06-10T11:24:34;9.65;;;7.97;;
29916;SDS011;16786;49.466;11.068;2023-06-10T11:27:18;8.48;;;7.53;;
29916;SDS011;16786;49.466;11.068;2023-06-10T11:32:30;8.02;;;7.22;;
29916;SDS011;16786;49.466;11.068;2023-06-10T11:35:02;7.72;;;7.03;;
29916;SDS011;16786;49.466;11.068;2023-06-10T11:37:31;7.50;;;6.80;;
29916;SDS011;16786;49.466;11.068;2023-06-10T11:39:58;6.82;;;6.22;;
29916;SDS011;16786;49.466;11.068;2023-06-10T11:42:26;7.85;;;7.20;;
29916;SDS011;16786;49.466;11.068;2023-06-10T11:44:54;6.50;;;5.90;;
29916;SDS011;16786;49.466;11.068;2023-06-10T11:47:21;7.20;;;6.60;;
29916;SDS011;16786;49.466;11.068;2023-06-10T11:49:56;7.20;;;6.60;;
29916;SDS011;16786;49.466;11.068;2023-06-10T11:52:27;7.78;;;7.07;;
29916;SDS011;16786;49.466;11.068;2023-06-10T11:55:00;7.10;;;6.50;;
29916;SDS011;16786;49.466;11.068;2023-06-10T11:57:27;7.15;;;6.63;;
29916;SDS011;16786;49.466;11.068;2023-06-10T11:59:55;7.25;;;6.55;;
29916;SDS011;16786;49.466;11.068;2023-06-10T12:02:22;7.13;;;6.53;;
29916;SDS011;16786;49.466;11.068;2023-06-10T12:04:50;6.97;;;6.38;;
29916;SDS011;16786;49.466;11.068;2023-06-10T12:07:18;7.80;;;7.00;;
29916;SDS011;16786;49.466;11.068;2023-06-10T12:09:52;7.32;;;6.70;;
29916;SDS011;16786;49.466;11.068;2023-06-10T12:12:37;6.80;;;6.20;;
29916;SDS011;16786;49.466;11.068;2023-06-10T12:15:05;7.03;;;6.40;;
29916;SDS011;16786;49.466;11.068;2023-06-10T12:20:08;6.70;;;6.10;;
29916;SDS011;16786;49.466;11.068;2023-06-10T12:22:51;6.38;;;5.88;;
29916;SDS011;16786;49.466;11.068;2023-06-10T12:25:23;6.97;;;6.35;;
29916;SDS011;16786;49.466;11.068;2023-06-10T12:27:54;6.97;;;6.28;;
29916;SDS011;16786;49.466;11.068;2023-06-10T12:30:24;7.30;;;6.70;;
29916;SDS011;16786;49.466;11.068;2023-06-10T12:32:53;7.10;;;6.50;;
29916;SDS011;16786;49.466;11.068;2023-06-10T12:35:22;7.18;;;6.57;;
29916;SDS011;16786;49.466;11.068;2023-06-10T12:38:03;7.25;;;6.65;;
29916;SDS011;16786;49.466;11.068;2023-06-10T12:40:34;7.13;;;6.53;;
29916;SDS011;16786;49.466;11.068;2023-06-10T12:43:07;6.70;;;6.20;;
29916;SDS011;16786;49.466;11.068;2023-06-10T12:45:35;7.15;;;6.43;;
29916;SDS011;16786;49.466;11.068;2023-06-10T12:48:10;6.50;;;5.95;;
29916;SDS011;16786;49.466;11.068;2023-06-10T12:50:39;6.57;;;6.07;;
29916;SDS011;16786;49.466;11.068;2023-06-10T12:53:08;7.13;;;6.55;;
29916;SDS011;16786;49.466;11.068;2023-06-10T12:55:38;7.90;;;6.25;;
29916;SDS011;16786;49.466;11.068;2023-06-10T12:58:06;6.88;;;6.28;;
29916;SDS011;16786;49.466;11.068;2023-06-10T13:00:33;7.20;;;6.60;;
29916;SDS011;16786;49.466;11.068;2023-06-10T13:03:02;6.43;;;5.82;;
29916;SDS011;16786;49.466;11.068;2023-06-10T13:05:33;7.07;;;6.47;;
29916;SDS011;16786;49.466;11.068;2023-06-10T13:08:07;7.00;;;6.40;;
29916;SDS011;16786;49.466;11.068;2023-06-10T13:10:39;6.85;;;6.25;;
29916;SDS011;16786;49.466;11.068;2023-06-10T13:13:06;7.03;;;6.43;;
29916;SDS011;16786;49.466;11.068;2023-06-10T13:15:36;7.35;;;6.75;;
29916;SDS011;16786;49.466;11.068;2023-06-10T13:18:09;7.20;;;6.60;;
29916;SDS011;16786;49.466;11.068;2023-06-10T13:20:38;7.75;;;7.13;;
29916;SDS011;16786;49.466;11.068;2023-06-10T13:23:06;10.73;;;9.77;;
29916;SDS011;16786;49.466;11.068;2023-06-10T13:25:34;6.72;;;6.20;;
29916;SDS011;16786;49.466;11.068;2023-06-10T13:28:01;7.72;;;6.45;;
29916;SDS011;16786;49.466;11.068;2023-06-10T13:30:29;7.00;;;6.40;;
29916;SDS011;16786;49.466;11.068;2023-06-10T13:32:57;6.57;;;6.07;;
29916;SDS011;16786;49.466;11.068;2023-06-10T13:35:25;6.80;;;6.20;;
29916;SDS011;16786;49.466;11.068;2023-06-10T13:37:52;7.10;;;6.40;;
29916;SDS011;16786;49.466;11.068;2023-06-10T13:40:20;6.65;;;6.05;;
29916;SDS011;16786;49.466;11.068;2023-06-10T13:42:48;6.47;;;5.93;;
29916;SDS011;16786;49.466;11.068;2023-06-10T13:45:17;6.70;;;6.07;;
29916;SDS011;16786;49.466;11.068;2023-06-10T13:47:45;6.60;;;6.00;;
29916;SDS011;16786;49.466;11.068;2023-06-10T13:50:12;6.22;;;5.57;;
29916;SDS011;16786;49.466;11.068;2023-06-10T13:52:40;6.30;;;5.80;;
29916;SDS011;16786;49.466;11.068;2023-06-10T13:55:08;6.68;;;6.00;;
29916;SDS011;16786;49.466;11.068;2023-06-10T13:57:36;6.20;;;5.70;;
29916;SDS011;16786;49.466;11.068;2023-06-10T14:00:04;6.32;;;5.72;;
29916;SDS011;16786;49.466;11.068;2023-06-10T14:02:32;6.60;;;6.10;;
29916;SDS011;16786;49.466;11.068;2023-06-10T14:04:59;7.15;;;6.55;;
29916;SDS011;16786;49.466;11.068;2023-06-10T14:07:28;6.70;;;6.10;;
29916;SDS011;16786;49.466;11.068;2023-06-10T14:09:56;7.28;;;5.63;;
29916;SDS011;16786;49.466;11.068;2023-06-10T14:12:23;6.43;;;5.40;;
29916;SDS011;16786;49.466;11.068;2023-06-10T14:14:50;6.40;;;5.90;;
29916;SDS011;16786;49.466;11.068;2023-06-10T14:17:18;6.13;;;5.63;;
29916;SDS011;16786;49.466;11.068;2023-06-10T14:19:45;6.68;;;6.07;;
29916;SDS011;16786;49.466;11.068;2023-06-10T14:22:13;6.00;;;5.40;;
29916;SDS011;16786;49.466;11.068;2023-06-10T14:24:43;5.90;;;5.27;;
29916;SDS011;16786;49.466;11.068;2023-06-10T14:27:10;6.03;;;5.43;;
29916;SDS011;16786;49.466;11.068;2023-06-10T14:29:38;6.07;;;5.57;;
29916;SDS011;16786;49.466;11.068;2023-06-10T14:32:05;6.72;;;5.65;;
29916;SDS011;16786;49.466;11.068;2023-06-10T14:34:35;6.13;;;5.53;;
29916;SDS011;16786;49.466;11.068;2023-06-10T14:37:03;5.95;;;5.45;;
29916;SDS011;16786;49.466;11.068;2023-06-10T14:39:34;6.25;;;5.50;;
29916;SDS011;16786;49.466;11.068;2023-06-10T14:42:02;5.78;;;5.28;;
29916;SDS011;16786;49.466;11.068;2023-06-10T14:44:29;5.45;;;4.97;;
29916;SDS011;16786;49.466;11.068;2023-06-10T14:46:58;5.40;;;4.95;;